sensor_id;sensor_type;location;lat;lon;timestamp;pressure;altitude;pressure_sealevel;temperature
56286;BMP180;42191;47.562;9.686;2023-04-06T00:02:16;97041.00;;;5.80
56286;BMP180;42191;47.562;9.686;2023-04-06T00:04:42;97043.00;;;5.80
56286;BMP180;42191;47.562;9.686;2023-04-06T00:07:08;97037.00;;;5.80
56286;BMP180;42191;47.562;9.686;2023-04-06T00:09:34;97036.00;;;5.80
56286;BMP180;42191;47.562;9.686;2023-04-06T00:12:01;97040.00;;;5.90
56286;BMP180;42191;47.562;9.686;2023-04-06T00:14:27;97025.00;;;5.90
56286;BMP180;42191;47.562;9.686;2023-04-06T00:16:53;97031.00;;;5.90
56286;BMP180;42191;47.562;9.686;2023-04-06T00:19:19;97035.00;;;5.90
56286;BMP180;42191;47.562;9.686;2023-04-06T00:21:46;97037.00;;;5.90
56286;BMP180;42191;47.562;9.686;2023-04-06T00:24:12;97033.00;;;5.90
56286;BMP180;42191;47.562;9.686;2023-04-06T00:26:38;97029.00;;;6.00
56286;BMP180;42191;47.562;9.686;2023-04-06T00:29:04;97020.00;;;6.00
56286;BMP180;42191;47.562;9.686;2023-04-06T00:31:30;97032.00;;;6.00
56286;BMP180;42191;47.562;9.686;2023-04-06T00:33:57;97027.00;;;6.00
56286;BMP180;42191;47.562;9.686;2023-04-06T00:36:23;97031.00;;;6.00
56286;BMP180;42191;47.562;9.686;2023-04-06T00:38:49;97023.00;;;6.00
56286;BMP180;42191;47.562;9.686;2023-04-06T00:41:17;97022.00;;;6.00
56286;BMP180;42191;47.562;9.686;2023-04-06T00:43:44;97018.00;;;6.00
56286;BMP180;42191;47.562;9.686;2023-04-06T00:46:10;97025.00;;;5.90
56286;BMP180;42191;47.562;9.686;2023-04-06T00:48:36;97019.00;;;5.90
56286;BMP180;42191;47.562;9.686;2023-04-06T00:51:02;97024.00;;;5.90
56286;BMP180;42191;47.562;9.686;2023-04-06T00:53:29;97020.00;;;5.80
56286;BMP180;42191;47.562;9.686;2023-04-06T00:55:55;97018.00;;;5.80
56286;BMP180;42191;47.562;9.686;2023-04-06T00:58:21;97014.00;;;5.70
56286;BMP180;42191;47.562;9.686;2023-04-06T01:00:47;97021.00;;;5.70
56286;BMP180;42191;47.562;9.686;2023-04-06T01:03:13;97021.00;;;5.70
56286;BMP180;42191;47.562;9.686;2023-04-06T01:05:40;97015.00;;;5.70
56286;BMP180;42191;47.562;9.686;2023-04-06T01:08:11;97019.00;;;5.70
56286;BMP180;42191;47.562;9.686;2023-04-06T01:10:37;97005.00;;;5.70
56286;BMP180;42191;47.562;9.686;2023-04-06T01:13:03;97013.00;;;5.70
56286;BMP180;42191;47.562;9.686;2023-04-06T01:15:30;97012.00;;;5.70
56286;BMP180;42191;47.562;9.686;2023-04-06T01:17:57;97008.00;;;5.80
56286;BMP180;42191;47.562;9.686;2023-04-06T01:20:24;97005.00;;;5.80
56286;BMP180;42191;47.562;9.686;2023-04-06T01:22:50;97004.00;;;5.90
56286;BMP180;42191;47.562;9.686;2023-04-06T01:25:16;96998.00;;;5.90
56286;BMP180;42191;47.562;9.686;2023-04-06T01:27:42;97003.00;;;5.90
56286;BMP180;42191;47.562;9.686;2023-04-06T01:30:09;96992.00;;;5.90
56286;BMP180;42191;47.562;9.686;2023-04-06T01:32:35;96997.00;;;6.00
56286;BMP180;42191;47.562;9.686;2023-04-06T01:35:01;96991.00;;;6.00
56286;BMP180;42191;47.562;9.686;2023-04-06T01:37:27;97008.00;;;6.00
56286;BMP180;42191;47.562;9.686;2023-04-06T01:39:55;96999.00;;;6.00
56286;BMP180;42191;47.562;9.686;2023-04-06T01:42:22;97002.00;;;6.00
56286;BMP180;42191;47.562;9.686;2023-04-06T01:44:48;97006.00;;;6.00
56286;BMP180;42191;47.562;9.686;2023-04-06T01:47:14;96993.00;;;6.00
56286;BMP180;42191;47.562;9.686;2023-04-06T01:49:40;96986.00;;;6.00
56286;BMP180;42191;47.562;9.686;2023-04-06T01:52:06;96983.00;;;6.00
56286;BMP180;42191;47.562;9.686;2023-04-06T01:54:33;96980.00;;;5.90
56286;BMP180;42191;47.562;9.686;2023-04-06T01:56:59;96996.00;;;5.90
56286;BMP180;42191;47.562;9.686;2023-04-06T01:59:25;96990.00;;;5.90
56286;BMP180;42191;47.562;9.686;2023-04-06T02:01:51;96985.00;;;5.90
56286;BMP180;42191;47.562;9.686;2023-04-06T02:04:17;96997.00;;;5.90
56286;BMP180;42191;47.562;9.686;2023-04-06T02:06:43;96990.00;;;5.90
56286;BMP180;42191;47.562;9.686;2023-04-06T02:09:10;96993.00;;;5.90
56286;BMP180;42191;47.562;9.686;2023-04-06T02:11:36;96988.00;;;5.90
56286;BMP180;42191;47.562;9.686;2023-04-06T02:14:02;96990.00;;;5.90
56286;BMP180;42191;47.562;9.686;2023-04-06T02:16:28;96984.00;;;5.90
56286;BMP180;42191;47.562;9.686;2023-04-06T02:18:54;96985.00;;;5.90
56286;BMP180;42191;47.562;9.686;2023-04-06T02:21:21;96987.00;;;5.90
56286;BMP180;42191;47.562;9.686;2023-04-06T02:23:47;96977.00;;;5.90
56286;BMP180;42191;47.562;9.686;2023-04-06T02:26:13;96981.00;;;5.90
56286;BMP180;42191;47.562;9.686;2023-04-06T02:28:40;96975.00;;;5.80
56286;BMP180;42191;47.562;9.686;2023-04-06T02:31:07;96980.00;;;5.80
56286;BMP180;42191;47.562;9.686;2023-04-06T02:33:33;96977.00;;;5.80
56286;BMP180;42191;47.562;9.686;2023-04-06T02:35:59;96982.00;;;5.70
56286;BMP180;42191;47.562;9.686;2023-04-06T02:38:25;96974.00;;;5.70
56286;BMP180;42191;47.562;9.686;2023-04-06T02:40:51;96966.00;;;5.70
56286;BMP180;42191;47.562;9.686;2023-04-06T02:43:18;96962.00;;;5.60
56286;BMP180;42191;47.562;9.686;2023-04-06T02:45:44;96963.00;;;5.60
56286;BMP180;42191;47.562;9.686;2023-04-06T02:48:10;96966.00;;;5.60
56286;BMP180;42191;47.562;9.686;2023-04-06T02:50:36;96964.00;;;5.60
56286;BMP180;42191;47.562;9.686;2023-04-06T02:53:02;96974.00;;;5.50
56286;BMP180;42191;47.562;9.686;2023-04-06T02:55:29;96970.00;;;5.50
56286;BMP180;42191;47.562;9.686;2023-04-06T02:57:55;96971.00;;;5.50
56286;BMP180;42191;47.562;9.686;2023-04-06T03:00:21;96973.00;;;5.50
56286;BMP180;42191;47.562;9.686;2023-04-06T03:02:47;96962.00;;;5.40
56286;BMP180;42191;47.562;9.686;2023-04-06T03:05:14;96969.00;;;5.40
56286;BMP180;42191;47.562;9.686;2023-04-06T03:07:40;96954.00;;;5.40
56286;BMP180;42191;47.562;9.686;2023-04-06T03:10:06;96965.00;;;5.40
56286;BMP180;42191;47.562;9.686;2023-04-06T03:12:33;96963.00;;;5.40
56286;BMP180;42191;47.562;9.686;2023-04-06T03:14:59;96968.00;;;5.40
56286;BMP180;42191;47.562;9.686;2023-04-06T03:17:25;96960.00;;;5.40
56286;BMP180;42191;47.562;9.686;2023-04-06T03:19:51;96975.00;;;5.40
56286;BMP180;42191;47.562;9.686;2023-04-06T03:22:17;96963.00;;;5.30
56286;BMP180;42191;47.562;9.686;2023-04-06T03:24:43;96963.00;;;5.30
56286;BMP180;42191;47.562;9.686;2023-04-06T03:27:09;96969.00;;;5.30
56286;BMP180;42191;47.562;9.686;2023-04-06T03:29:36;96964.00;;;5.30
56286;BMP180;42191;47.562;9.686;2023-04-06T03:32:02;96973.00;;;5.30
56286;BMP180;42191;47.562;9.686;2023-04-06T03:34:28;96974.00;;;5.30
56286;BMP180;42191;47.562;9.686;2023-04-06T03:36:54;96972.00;;;5.30
56286;BMP180;42191;47.562;9.686;2023-04-06T03:39:20;96971.00;;;5.20
56286;BMP180;42191;47.562;9.686;2023-04-06T03:41:46;96968.00;;;5.20
56286;BMP180;42191;47.562;9.686;2023-04-06T03:44:12;96966.00;;;5.20
56286;BMP180;42191;47.562;9.686;2023-04-06T03:46:39;96976.00;;;5.20
56286;BMP180;42191;47.562;9.686;2023-04-06T03:49:05;96984.00;;;5.20
56286;BMP180;42191;47.562;9.686;2023-04-06T03:51:31;96976.00;;;5.20
56286;BMP180;42191;47.562;9.686;2023-04-06T03:53:57;96985.00;;;5.20
56286;BMP180;42191;47.562;9.686;2023-04-06T03:56:23;96984.00;;;5.20
56286;BMP180;42191;47.562;9.686;2023-04-06T03:58:49;96987.00;;;5.20
56286;BMP180;42191;47.562;9.686;2023-04-06T04:01:20;96985.00;;;5.20
56286;BMP180;42191;47.562;9.686;2023-04-06T04:03:46;96982.00;;;5.20
56286;BMP180;42191;47.562;9.686;2023-04-06T04:06:12;96983.00;;;5.20
56286;BMP180;42191;47.562;9.686;2023-04-06T04:08:38;96987.00;;;5.20
56286;BMP180;42191;47.562;9.686;2023-04-06T04:11:04;96991.00;;;5.20
56286;BMP180;42191;47.562;9.686;2023-04-06T04:13:30;96992.00;;;5.20
56286;BMP180;42191;47.562;9.686;2023-04-06T04:15:56;96984.00;;;5.20
56286;BMP180;42191;47.562;9.686;2023-04-06T04:18:22;96992.00;;;5.20
56286;BMP180;42191;47.562;9.686;2023-04-06T04:20:48;96992.00;;;5.20
56286;BMP180;42191;47.562;9.686;2023-04-06T04:23:14;97003.00;;;5.30
56286;BMP180;42191;47.562;9.686;2023-04-06T04:25:41;97000.00;;;5.30
56286;BMP180;42191;47.562;9.686;2023-04-06T04:28:07;96998.00;;;5.30
56286;BMP180;42191;47.562;9.686;2023-04-06T04:30:33;96998.00;;;5.30
56286;BMP180;42191;47.562;9.686;2023-04-06T04:32:59;97010.00;;;5.40
56286;BMP180;42191;47.562;9.686;2023-04-06T04:35:26;97002.00;;;5.30
56286;BMP180;42191;47.562;9.686;2023-04-06T04:37:52;97004.00;;;5.30
56286;BMP180;42191;47.562;9.686;2023-04-06T04:40:18;97001.00;;;5.30
56286;BMP180;42191;47.562;9.686;2023-04-06T04:42:44;97009.00;;;5.30
56286;BMP180;42191;47.562;9.686;2023-04-06T04:45:10;97014.00;;;5.30
56286;BMP180;42191;47.562;9.686;2023-04-06T04:47:37;97018.00;;;5.30
56286;BMP180;42191;47.562;9.686;2023-04-06T04:50:03;97002.00;;;5.30
56286;BMP180;42191;47.562;9.686;2023-04-06T04:52:30;97006.00;;;5.30
56286;BMP180;42191;47.562;9.686;2023-04-06T04:54:56;97006.00;;;5.30
56286;BMP180;42191;47.562;9.686;2023-04-06T04:57:22;97012.00;;;5.30
56286;BMP180;42191;47.562;9.686;2023-04-06T04:59:48;97020.00;;;5.30
56286;BMP180;42191;47.562;9.686;2023-04-06T05:02:16;97010.00;;;5.30
56286;BMP180;42191;47.562;9.686;2023-04-06T05:04:42;97006.00;;;5.30
56286;BMP180;42191;47.562;9.686;2023-04-06T05:07:09;97006.00;;;5.30
56286;BMP180;42191;47.562;9.686;2023-04-06T05:09:35;97022.00;;;5.30
56286;BMP180;42191;47.562;9.686;2023-04-06T05:12:02;97012.00;;;5.30
56286;BMP180;42191;47.562;9.686;2023-04-06T05:14:28;97018.00;;;5.30
56286;BMP180;42191;47.562;9.686;2023-04-06T05:16:54;97017.00;;;5.30
56286;BMP180;42191;47.562;9.686;2023-04-06T05:19:21;97017.00;;;5.30
56286;BMP180;42191;47.562;9.686;2023-04-06T05:21:47;97019.00;;;5.30
56286;BMP180;42191;47.562;9.686;2023-04-06T05:24:13;97022.00;;;5.40
56286;BMP180;42191;47.562;9.686;2023-04-06T05:26:39;97020.00;;;5.40
56286;BMP180;42191;47.562;9.686;2023-04-06T05:29:06;97027.00;;;5.40
56286;BMP180;42191;47.562;9.686;2023-04-06T05:31:32;97030.00;;;5.50
56286;BMP180;42191;47.562;9.686;2023-04-06T05:33:58;97037.00;;;5.50
56286;BMP180;42191;47.562;9.686;2023-04-06T05:36:24;97038.00;;;5.60
56286;BMP180;42191;47.562;9.686;2023-04-06T05:38:50;97033.00;;;5.60
56286;BMP180;42191;47.562;9.686;2023-04-06T05:41:18;97039.00;;;5.70
56286;BMP180;42191;47.562;9.686;2023-04-06T05:43:44;97037.00;;;5.70
56286;BMP180;42191;47.562;9.686;2023-04-06T05:46:10;97035.00;;;5.80
56286;BMP180;42191;47.562;9.686;2023-04-06T05:48:36;97024.00;;;5.80
56286;BMP180;42191;47.562;9.686;2023-04-06T05:51:03;97037.00;;;5.90
56286;BMP180;42191;47.562;9.686;2023-04-06T05:53:32;97035.00;;;6.00
56286;BMP180;42191;47.562;9.686;2023-04-06T05:56:01;97047.00;;;6.10
56286;BMP180;42191;47.562;9.686;2023-04-06T05:58:28;97046.00;;;6.10
56286;BMP180;42191;47.562;9.686;2023-04-06T06:00:58;97046.00;;;6.20
56286;BMP180;42191;47.562;9.686;2023-04-06T06:03:24;97048.00;;;6.30
56286;BMP180;42191;47.562;9.686;2023-04-06T06:05:50;97050.00;;;6.40
56286;BMP180;42191;47.562;9.686;2023-04-06T06:08:16;97053.00;;;6.50
56286;BMP180;42191;47.562;9.686;2023-04-06T06:10:42;97050.00;;;6.50
56286;BMP180;42191;47.562;9.686;2023-04-06T06:13:09;97064.00;;;6.60
56286;BMP180;42191;47.562;9.686;2023-04-06T06:15:35;97053.00;;;6.70
56286;BMP180;42191;47.562;9.686;2023-04-06T06:18:01;97050.00;;;6.70
56286;BMP180;42191;47.562;9.686;2023-04-06T06:20:27;97053.00;;;6.80
56286;BMP180;42191;47.562;9.686;2023-04-06T06:22:53;97061.00;;;6.80
56286;BMP180;42191;47.562;9.686;2023-04-06T06:25:19;97060.00;;;6.90
56286;BMP180;42191;47.562;9.686;2023-04-06T06:27:47;97058.00;;;7.00
56286;BMP180;42191;47.562;9.686;2023-04-06T06:30:13;97062.00;;;7.00
56286;BMP180;42191;47.562;9.686;2023-04-06T06:32:40;97047.00;;;7.10
56286;BMP180;42191;47.562;9.686;2023-04-06T06:35:06;97053.00;;;7.20
56286;BMP180;42191;47.562;9.686;2023-04-06T06:37:33;97058.00;;;7.20
56286;BMP180;42191;47.562;9.686;2023-04-06T06:39:59;97061.00;;;7.30
56286;BMP180;42191;47.562;9.686;2023-04-06T06:42:25;97068.00;;;7.40
56286;BMP180;42191;47.562;9.686;2023-04-06T06:44:51;97067.00;;;7.40
56286;BMP180;42191;47.562;9.686;2023-04-06T06:47:18;97073.00;;;7.50
56286;BMP180;42191;47.562;9.686;2023-04-06T06:49:44;97074.00;;;7.60
56286;BMP180;42191;47.562;9.686;2023-04-06T06:52:10;97077.00;;;7.70
56286;BMP180;42191;47.562;9.686;2023-04-06T06:54:36;97072.00;;;7.70
56286;BMP180;42191;47.562;9.686;2023-04-06T06:57:02;97076.00;;;7.80
56286;BMP180;42191;47.562;9.686;2023-04-06T06:59:28;97076.00;;;7.80
56286;BMP180;42191;47.562;9.686;2023-04-06T07:01:54;97075.00;;;7.90
56286;BMP180;42191;47.562;9.686;2023-04-06T07:04:21;97084.00;;;8.00
56286;BMP180;42191;47.562;9.686;2023-04-06T07:06:47;97067.00;;;8.10
56286;BMP180;42191;47.562;9.686;2023-04-06T07:09:13;97070.00;;;8.10
56286;BMP180;42191;47.562;9.686;2023-04-06T07:11:39;97080.00;;;8.20
56286;BMP180;42191;47.562;9.686;2023-04-06T07:14:05;97077.00;;;8.20
56286;BMP180;42191;47.562;9.686;2023-04-06T07:16:31;97081.00;;;8.30
56286;BMP180;42191;47.562;9.686;2023-04-06T07:18:57;97083.00;;;8.40
56286;BMP180;42191;47.562;9.686;2023-04-06T07:21:23;97078.00;;;8.40
56286;BMP180;42191;47.562;9.686;2023-04-06T07:23:49;97077.00;;;8.50
56286;BMP180;42191;47.562;9.686;2023-04-06T07:26:16;97078.00;;;8.60
56286;BMP180;42191;47.562;9.686;2023-04-06T07:28:42;97067.00;;;8.60
56286;BMP180;42191;47.562;9.686;2023-04-06T07:31:08;97077.00;;;8.70
56286;BMP180;42191;47.562;9.686;2023-04-06T07:33:35;97076.00;;;8.80
56286;BMP180;42191;47.562;9.686;2023-04-06T07:36:01;97076.00;;;8.80
56286;BMP180;42191;47.562;9.686;2023-04-06T07:38:27;97070.00;;;8.90
56286;BMP180;42191;47.562;9.686;2023-04-06T07:40:53;97081.00;;;8.90
56286;BMP180;42191;47.562;9.686;2023-04-06T07:43:19;97079.00;;;9.00
56286;BMP180;42191;47.562;9.686;2023-04-06T07:45:45;97075.00;;;9.10
56286;BMP180;42191;47.562;9.686;2023-04-06T07:48:11;97072.00;;;9.10
56286;BMP180;42191;47.562;9.686;2023-04-06T07:50:37;97079.00;;;9.20
56286;BMP180;42191;47.562;9.686;2023-04-06T07:53:03;97087.00;;;9.30
56286;BMP180;42191;47.562;9.686;2023-04-06T07:55:29;97078.00;;;9.30
56286;BMP180;42191;47.562;9.686;2023-04-06T07:57:55;97088.00;;;9.40
56286;BMP180;42191;47.562;9.686;2023-04-06T08:00:22;97068.00;;;9.50
56286;BMP180;42191;47.562;9.686;2023-04-06T08:02:48;97077.00;;;9.60
56286;BMP180;42191;47.562;9.686;2023-04-06T08:05:14;97079.00;;;9.60
56286;BMP180;42191;47.562;9.686;2023-04-06T08:07:40;97076.00;;;9.70
56286;BMP180;42191;47.562;9.686;2023-04-06T08:10:07;97078.00;;;9.80
56286;BMP180;42191;47.562;9.686;2023-04-06T08:12:34;97081.00;;;9.90
56286;BMP180;42191;47.562;9.686;2023-04-06T08:15:00;97082.00;;;9.90
56286;BMP180;42191;47.562;9.686;2023-04-06T08:17:28;97076.00;;;10.00
56286;BMP180;42191;47.562;9.686;2023-04-06T08:19:56;97075.00;;;10.00
56286;BMP180;42191;47.562;9.686;2023-04-06T08:22:22;97086.00;;;10.10
56286;BMP180;42191;47.562;9.686;2023-04-06T08:24:48;97062.00;;;10.20
56286;BMP180;42191;47.562;9.686;2023-04-06T08:27:14;97075.00;;;10.20
56286;BMP180;42191;47.562;9.686;2023-04-06T08:29:40;97076.00;;;10.30
56286;BMP180;42191;47.562;9.686;2023-04-06T08:32:07;97082.00;;;10.40
56286;BMP180;42191;47.562;9.686;2023-04-06T08:34:33;97077.00;;;10.40
56286;BMP180;42191;47.562;9.686;2023-04-06T08:37:00;97074.00;;;10.50
56286;BMP180;42191;47.562;9.686;2023-04-06T08:39:26;97083.00;;;10.60
56286;BMP180;42191;47.562;9.686;2023-04-06T08:41:53;97084.00;;;10.60
56286;BMP180;42191;47.562;9.686;2023-04-06T08:44:23;97074.00;;;10.70
56286;BMP180;42191;47.562;9.686;2023-04-06T08:46:49;97078.00;;;10.80
56286;BMP180;42191;47.562;9.686;2023-04-06T08:49:16;97084.00;;;10.80
56286;BMP180;42191;47.562;9.686;2023-04-06T08:51:43;97083.00;;;10.90
56286;BMP180;42191;47.562;9.686;2023-04-06T08:54:09;97081.00;;;11.00
56286;BMP180;42191;47.562;9.686;2023-04-06T08:56:38;97084.00;;;11.10
56286;BMP180;42191;47.562;9.686;2023-04-06T08:59:06;97079.00;;;11.10
56286;BMP180;42191;47.562;9.686;2023-04-06T09:01:36;97074.00;;;11.20
56286;BMP180;42191;47.562;9.686;2023-04-06T09:04:04;97077.00;;;11.30
56286;BMP180;42191;47.562;9.686;2023-04-06T09:06:35;97076.00;;;11.40
56286;BMP180;42191;47.562;9.686;2023-04-06T09:09:02;97075.00;;;11.50
56286;BMP180;42191;47.562;9.686;2023-04-06T09:11:29;97082.00;;;11.50
56286;BMP180;42191;47.562;9.686;2023-04-06T09:13:55;97068.00;;;11.60
56286;BMP180;42191;47.562;9.686;2023-04-06T09:16:22;97074.00;;;11.60
56286;BMP180;42191;47.562;9.686;2023-04-06T09:18:49;97078.00;;;11.70
56286;BMP180;42191;47.562;9.686;2023-04-06T09:21:19;97064.00;;;11.70
56286;BMP180;42191;47.562;9.686;2023-04-06T09:23:45;97075.00;;;11.80
56286;BMP180;42191;47.562;9.686;2023-04-06T09:26:16;97074.00;;;11.80
56286;BMP180;42191;47.562;9.686;2023-04-06T09:28:54;97072.00;;;11.90
56286;BMP180;42191;47.562;9.686;2023-04-06T09:31:26;97069.00;;;12.00
56286;BMP180;42191;47.562;9.686;2023-04-06T09:33:53;97065.00;;;12.00
56286;BMP180;42191;47.562;9.686;2023-04-06T09:36:28;97065.00;;;12.10
56286;BMP180;42191;47.562;9.686;2023-04-06T09:38:59;97065.00;;;12.20
56286;BMP180;42191;47.562;9.686;2023-04-06T09:41:27;97055.00;;;12.20
56286;BMP180;42191;47.562;9.686;2023-04-06T09:44:08;97056.00;;;12.20
56286;BMP180;42191;47.562;9.686;2023-04-06T09:46:36;97050.00;;;12.30
56286;BMP180;42191;47.562;9.686;2023-04-06T09:49:04;97049.00;;;12.30
56286;BMP180;42191;47.562;9.686;2023-04-06T09:51:43;97045.00;;;12.30
56286;BMP180;42191;47.562;9.686;2023-04-06T09:54:15;97046.00;;;12.40
56286;BMP180;42191;47.562;9.686;2023-04-06T09:56:47;97045.00;;;12.40
56286;BMP180;42191;47.562;9.686;2023-04-06T09:59:44;97051.00;;;12.50
56286;BMP180;42191;47.562;9.686;2023-04-06T10:08:11;97045.00;;;12.70
56286;BMP180;42191;47.562;9.686;2023-04-06T10:10:38;97039.00;;;12.70
56286;BMP180;42191;47.562;9.686;2023-04-06T10:13:05;97044.00;;;12.80
56286;BMP180;42191;47.562;9.686;2023-04-06T10:15:31;97048.00;;;12.90
56286;BMP180;42191;47.562;9.686;2023-04-06T10:18:01;97037.00;;;13.00
56286;BMP180;42191;47.562;9.686;2023-04-06T10:20:49;97045.00;;;13.00
56286;BMP180;42191;47.562;9.686;2023-04-06T10:23:32;97036.00;;;13.10
56286;BMP180;42191;47.562;9.686;2023-04-06T10:26:00;97040.00;;;13.10
56286;BMP180;42191;47.562;9.686;2023-04-06T10:28:32;97036.00;;;13.20
56286;BMP180;42191;47.562;9.686;2023-04-06T10:31:00;97039.00;;;13.20
56286;BMP180;42191;47.562;9.686;2023-04-06T10:33:28;97033.00;;;13.30
56286;BMP180;42191;47.562;9.686;2023-04-06T10:35:54;97042.00;;;13.30
56286;BMP180;42191;47.562;9.686;2023-04-06T10:38:37;97029.00;;;13.40
56286;BMP180;42191;47.562;9.686;2023-04-06T10:41:08;97031.00;;;13.40
56286;BMP180;42191;47.562;9.686;2023-04-06T10:43:36;97030.00;;;13.50
56286;BMP180;42191;47.562;9.686;2023-04-06T10:46:03;97023.00;;;13.50
56286;BMP180;42191;47.562;9.686;2023-04-06T10:48:44;97030.00;;;13.60
56286;BMP180;42191;47.562;9.686;2023-04-06T10:51:16;97023.00;;;13.60
56286;BMP180;42191;47.562;9.686;2023-04-06T10:53:43;97031.00;;;13.70
56286;BMP180;42191;47.562;9.686;2023-04-06T10:56:11;97027.00;;;13.70
56286;BMP180;42191;47.562;9.686;2023-04-06T10:58:38;97024.00;;;13.80
56286;BMP180;42191;47.562;9.686;2023-04-06T11:01:11;97021.00;;;13.80
56286;BMP180;42191;47.562;9.686;2023-04-06T11:03:48;97032.00;;;13.90
56286;BMP180;42191;47.562;9.686;2023-04-06T11:06:25;97035.00;;;13.90
56286;BMP180;42191;47.562;9.686;2023-04-06T11:08:53;97026.00;;;14.00
56286;BMP180;42191;47.562;9.686;2023-04-06T11:11:22;97030.00;;;14.00
56286;BMP180;42191;47.562;9.686;2023-04-06T11:13:59;97024.00;;;14.00
56286;BMP180;42191;47.562;9.686;2023-04-06T11:16:30;97016.00;;;14.00
56286;BMP180;42191;47.562;9.686;2023-04-06T11:19:05;97023.00;;;14.10
56286;BMP180;42191;47.562;9.686;2023-04-06T11:24:11;97009.00;;;14.30
56286;BMP180;42191;47.562;9.686;2023-04-06T11:26:58;97008.00;;;14.40
56286;BMP180;42191;47.562;9.686;2023-04-06T11:29:29;97000.00;;;14.50
56286;BMP180;42191;47.562;9.686;2023-04-06T11:32:05;97008.00;;;14.60
56286;BMP180;42191;47.562;9.686;2023-04-06T11:34:37;97017.00;;;14.60
56286;BMP180;42191;47.562;9.686;2023-04-06T11:37:08;97007.00;;;14.70
56286;BMP180;42191;47.562;9.686;2023-04-06T11:39:50;96992.00;;;14.70
56286;BMP180;42191;47.562;9.686;2023-04-06T11:42:25;97001.00;;;14.80
56286;BMP180;42191;47.562;9.686;2023-04-06T11:44:54;97009.00;;;14.80
56286;BMP180;42191;47.562;9.686;2023-04-06T11:47:28;96993.00;;;14.90
56286;BMP180;42191;47.562;9.686;2023-04-06T11:49:54;97005.00;;;15.00
56286;BMP180;42191;47.562;9.686;2023-04-06T11:52:26;97001.00;;;15.00
56286;BMP180;42191;47.562;9.686;2023-04-06T11:54:53;96997.00;;;15.10
56286;BMP180;42191;47.562;9.686;2023-04-06T11:57:22;96993.00;;;15.10
56286;BMP180;42191;47.562;9.686;2023-04-06T11:59:51;96998.00;;;15.10
56286;BMP180;42191;47.562;9.686;2023-04-06T12:02:18;97000.00;;;15.20
56286;BMP180;42191;47.562;9.686;2023-04-06T12:04:44;97000.00;;;15.20
56286;BMP180;42191;47.562;9.686;2023-04-06T12:07:10;96983.00;;;15.30
56286;BMP180;42191;47.562;9.686;2023-04-06T12:09:36;96980.00;;;15.40
56286;BMP180;42191;47.562;9.686;2023-04-06T12:12:03;96984.00;;;15.50
56286;BMP180;42191;47.562;9.686;2023-04-06T12:14:29;96985.00;;;15.50
56286;BMP180;42191;47.562;9.686;2023-04-06T12:16:59;96990.00;;;15.60
56286;BMP180;42191;47.562;9.686;2023-04-06T12:19:25;96980.00;;;15.70
56286;BMP180;42191;47.562;9.686;2023-04-06T12:21:52;96983.00;;;15.80
56286;BMP180;42191;47.562;9.686;2023-04-06T12:24:19;96972.00;;;15.90
56286;BMP180;42191;47.562;9.686;2023-04-06T12:26:45;96967.00;;;16.00
56286;BMP180;42191;47.562;9.686;2023-04-06T12:29:11;96967.00;;;16.00
56286;BMP180;42191;47.562;9.686;2023-04-06T12:31:39;96972.00;;;16.10
56286;BMP180;42191;47.562;9.686;2023-04-06T12:34:06;96962.00;;;16.20
56286;BMP180;42191;47.562;9.686;2023-04-06T12:36:33;96965.00;;;16.30
56286;BMP180;42191;47.562;9.686;2023-04-06T12:38:59;96962.00;;;16.40
56286;BMP180;42191;47.562;9.686;2023-04-06T12:41:30;96951.00;;;16.40
56286;BMP180;42191;47.562;9.686;2023-04-06T12:43:56;96954.00;;;16.50
56286;BMP180;42191;47.562;9.686;2023-04-06T12:46:22;96954.00;;;16.60
56286;BMP180;42191;47.562;9.686;2023-04-06T12:48:49;96953.00;;;16.70
56286;BMP180;42191;47.562;9.686;2023-04-06T12:51:15;96958.00;;;16.80
56286;BMP180;42191;47.562;9.686;2023-04-06T12:53:43;96951.00;;;16.90
56286;BMP180;42191;47.562;9.686;2023-04-06T12:56:13;96956.00;;;17.00
56286;BMP180;42191;47.562;9.686;2023-04-06T12:58:40;96958.00;;;17.10
56286;BMP180;42191;47.562;9.686;2023-04-06T13:01:09;96944.00;;;17.20
56286;BMP180;42191;47.562;9.686;2023-04-06T13:03:36;96954.00;;;17.20
56286;BMP180;42191;47.562;9.686;2023-04-06T13:06:02;96946.00;;;17.30
56286;BMP180;42191;47.562;9.686;2023-04-06T13:08:29;96946.00;;;17.30
56286;BMP180;42191;47.562;9.686;2023-04-06T13:10:55;96952.00;;;17.30
56286;BMP180;42191;47.562;9.686;2023-04-06T13:13:28;96945.00;;;17.40
56286;BMP180;42191;47.562;9.686;2023-04-06T13:16:00;96942.00;;;17.50
56286;BMP180;42191;47.562;9.686;2023-04-06T13:18:27;96944.00;;;17.60
56286;BMP180;42191;47.562;9.686;2023-04-06T13:20:54;96933.00;;;17.70
56286;BMP180;42191;47.562;9.686;2023-04-06T13:23:22;96941.00;;;17.80
56286;BMP180;42191;47.562;9.686;2023-04-06T13:25:56;96933.00;;;18.00
56286;BMP180;42191;47.562;9.686;2023-04-06T13:28:22;96934.00;;;18.20
56286;BMP180;42191;47.562;9.686;2023-04-06T13:30:48;96922.00;;;18.50
56286;BMP180;42191;47.562;9.686;2023-04-06T13:33:15;96943.00;;;18.90
56286;BMP180;42191;47.562;9.686;2023-04-06T13:35:45;96928.00;;;19.30
56286;BMP180;42191;47.562;9.686;2023-04-06T13:38:11;96923.00;;;19.80
56286;BMP180;42191;47.562;9.686;2023-04-06T13:40:41;96935.00;;;20.40
56286;BMP180;42191;47.562;9.686;2023-04-06T13:43:07;96926.00;;;20.80
56286;BMP180;42191;47.562;9.686;2023-04-06T13:45:33;96921.00;;;21.20
56286;BMP180;42191;47.562;9.686;2023-04-06T13:48:00;96926.00;;;21.80
56286;BMP180;42191;47.562;9.686;2023-04-06T13:50:26;96919.00;;;22.40
56286;BMP180;42191;47.562;9.686;2023-04-06T13:52:53;96913.00;;;23.00
56286;BMP180;42191;47.562;9.686;2023-04-06T13:55:19;96914.00;;;23.60
56286;BMP180;42191;47.562;9.686;2023-04-06T13:57:46;96917.00;;;24.00
56286;BMP180;42191;47.562;9.686;2023-04-06T14:00:12;96899.00;;;24.30
56286;BMP180;42191;47.562;9.686;2023-04-06T14:02:40;96906.00;;;24.60
56286;BMP180;42191;47.562;9.686;2023-04-06T14:05:06;96917.00;;;25.00
56286;BMP180;42191;47.562;9.686;2023-04-06T14:07:33;96922.00;;;25.20
56286;BMP180;42191;47.562;9.686;2023-04-06T14:09:59;96913.00;;;25.50
56286;BMP180;42191;47.562;9.686;2023-04-06T14:12:26;96913.00;;;25.80
56286;BMP180;42191;47.562;9.686;2023-04-06T14:14:52;96915.00;;;26.10
56286;BMP180;42191;47.562;9.686;2023-04-06T14:17:18;96907.00;;;26.50
56286;BMP180;42191;47.562;9.686;2023-04-06T14:19:45;96910.00;;;26.90
56286;BMP180;42191;47.562;9.686;2023-04-06T14:22:11;96909.00;;;27.20
56286;BMP180;42191;47.562;9.686;2023-04-06T14:24:37;96914.00;;;27.50
56286;BMP180;42191;47.562;9.686;2023-04-06T14:27:03;96910.00;;;27.70